Latest Weather Observations for Creal Reef

IDQ60801

Issued at 1:02 am EST Monday 21 August 2017 (issued every 30 minutes, with the page automatically refreshed every 10 minutes)

About weather observations | Map of weather stations | Latest weather observations for QLD | Other Formats
Station Details ID: 200736 Name: CREAL REEF Lat: -20.53 Lon: 150.38 Height: 1.7 m
Data from the previous 72 hours. | See also: Recent months for locations in Queensland
Date/Time
EST
Temp
°C
App
Temp
°C
Dew
Point
°C
Rel
Hum
%
Delta-T
°C
Wind Press
QNH
hPa
Press
MSL
hPa
Rain since
9am
mm
Dir  Spd
km/h
Gust
km/h
Spd
kts
Gust
kts
21/01:00am 19.7 - - - - SE 33 41 18 22 1017.6 - -
21/12:30am 19.6 - - - - SE 32 39 17 21 1017.8 - -
21/12:20am 19.7 - - - - SE 30 - 16 - - 1017.8 -
21/12:00am 19.7 - - - - SE 30 41 16 22 1018.0 - -
 
Date/Time
EST
Temp
°C
App
Temp
°C
Dew
Point
°C
Rel
Hum
%
Delta-T
°C
Wind Press
QNH
hPa
Press
MSL
hPa
Rain since
9am
mm
Dir  Spd
km/h
Gust
km/h
Spd
kts
Gust
kts
20/11:30pm 19.5 - - - - SE 33 41 18 22 1018.3 - -
20/11:20pm 19.3 - - - - SE 32 - 17 - - 1018.2 -
20/11:00pm 19.1 - - - - SE 33 43 18 23 1018.4 - -
20/10:30pm 18.9 - - - - SSE 32 41 17 22 1018.5 - -
20/10:20pm 19.0 - - - - SSE 32 - 17 - - 1018.4 -
20/10:00pm 19.0 - - - - SSE 28 37 15 20 1018.6 - -
20/09:30pm 18.6 - - - - SSE 30 37 16 20 1018.9 - -
20/09:20pm 18.8 - - - - SSE 30 - 16 - - 1018.8 -
20/09:00pm 18.9 - - - - SSE 30 41 16 22 1019.0 - -
20/08:30pm 18.7 - - - - SSE 32 41 17 22 1019.1 - -
20/08:20pm 18.8 - - - - SSE 33 - 18 - - 1018.9 -
20/08:00pm 18.7 - - - - SSE 33 41 18 22 1018.8 - -
20/07:30pm 18.4 - - - - SSE 32 41 17 22 1018.8 - -
20/07:20pm 18.7 - - - - SSE 32 - 17 - - 1018.6 -
20/07:00pm 18.5 - - - - S 35 48 19 26 1018.5 - -
20/06:30pm 18.4 - - - - S 32 39 17 21 1018.2 - -
20/06:20pm 18.4 - - - - SSE 32 - 17 - - 1018.0 -
20/06:00pm 18.4 - - - - S 32 39 17 21 1018.0 - -
20/05:30pm 18.3 - - - - S 33 43 18 23 1017.6 - -
20/05:20pm 18.3 - - - - S 33 - 18 - - 1017.4 -
20/05:00pm 18.4 - - - - SSE 33 44 18 24 1017.4 - -
20/04:30pm 18.3 - - - - S 37 43 20 23 1017.3 - -
20/04:20pm 18.2 - - - - S 37 - 20 - - 1017.2 -
20/04:00pm 18.5 - - - - S 35 44 19 24 1017.1 - -
20/03:30pm 18.5 - - - - SSE 32 41 17 22 1017.0 - -
20/03:20pm 18.4 - - - - S 35 - 19 - - 1016.9 -
20/03:00pm 18.5 - - - - S 35 41 19 22 1017.0 - -
20/02:30pm 18.4 - - - - S 33 43 18 23 1016.9 - -
20/02:20pm 18.4 - - - - S 35 - 19 - - 1016.8 -
20/02:00pm 18.4 - - - - S 39 46 21 25 1016.9 - -
20/01:30pm 18.5 - - - - S 39 46 21 25 1017.4 - -
20/01:20pm 18.7 - - - - S 39 - 21 - - 1017.4 -
20/01:00pm 18.9 - - - - S 37 50 20 27 1017.5 - -
20/12:30pm 18.4 - - - - S 37 46 20 25 1018.0 - -
20/12:20pm 18.5 - - - - S 37 - 20 - - 1018.0 -
20/12:00pm 18.7 - - - - S 37 46 20 25 1018.3 - -
20/11:30am 19.0 - - - - S 37 44 20 24 1018.8 - -
20/11:20am 19.1 - - - - S 37 - 20 - - 1018.9 -
20/11:00am 18.9 - - - - S 41 48 22 26 1019.1 - -
20/10:30am 19.4 - - - - S 39 46 21 25 1019.2 - -
20/10:20am 19.1 - - - - S 43 - 23 - - 1019.1 -
20/10:00am 19.3 - - - - S 43 54 23 29 1019.3 - -
20/09:30am 19.1 - - - - S 44 54 24 29 1019.3 - -
20/09:20am 19.2 - - - - S 44 - 24 - - 1019.1 -
20/09:00am 19.5 - - - - S 46 54 25 29 1019.0 - -
20/08:30am 19.4 - - - - S 43 52 23 28 1018.8 - -
20/08:20am 19.5 - - - - S 44 - 24 - - 1018.6 -
20/08:00am 19.8 - - - - S 44 54 24 29 1018.6 - -
20/07:30am 20.0 - - - - S 43 50 23 27 1018.3 - -
20/07:20am 20.0 - - - - S 43 - 23 - - 1018.1 -
20/07:00am 19.9 - - - - S 41 50 22 27 1017.9 - -
20/06:30am 20.1 - - - - S 41 50 22 27 1017.3 - -
20/06:20am 20.1 - - - - S 41 - 22 - - 1017.1 -
20/06:00am 20.3 - - - - S 41 48 22 26 1017.1 - -
20/05:30am 20.4 - - - - S 43 50 23 27 1016.9 - -
20/05:20am 20.6 - - - - S 41 - 22 - - 1016.7 -
20/05:00am 20.9 - - - - S 41 48 22 26 1016.6 - -
20/04:30am 21.4 - - - - S 39 44 21 24 1016.4 - -
20/04:20am 21.4 - - - - S 37 - 20 - - 1016.2 -
20/04:00am 21.7 - - - - S 33 39 18 21 1016.1 - -
20/03:30am 22.1 - - - - S 32 39 17 21 1016.2 - -
20/03:20am 22.1 - - - - S 32 - 17 - - 1016.1 -
20/03:00am 22.1 - - - - S 30 37 16 20 1016.2 - -
20/02:30am 22.2 - - - - S 28 35 15 19 1016.3 - -
20/02:20am 22.1 - - - - S 26 - 14 - - 1016.4 -
20/02:00am 22.2 - - - - S 24 32 13 17 1016.6 - -
20/01:30am 22.1 - - - - SSE 24 32 13 17 1016.9 - -
20/01:20am 22.1 - - - - SSE 24 - 13 - - 1016.8 -
20/01:00am 22.0 - - - - SSE 22 30 12 16 1017.0 - -
20/12:30am 22.3 - - - - SSE 22 28 12 15 1017.3 - -
20/12:20am 22.3 - - - - SSE 22 - 12 - - 1017.2 -
20/12:00am 22.4 - - - - SSE 24 28 13 15 1017.4 - -
 
Date/Time
EST
Temp
°C
App
Temp
°C
Dew
Point
°C
Rel
Hum
%
Delta-T
°C
Wind Press
QNH
hPa
Press
MSL
hPa
Rain since
9am
mm
Dir  Spd
km/h
Gust
km/h
Spd
kts
Gust
kts
19/11:30pm 22.5 - - - - SSE 24 30 13 16 1017.6 - -
19/11:20pm 22.5 - - - - SSE 24 - 13 - - 1017.5 -
19/11:00pm 22.3 - - - - SSE 22 26 12 14 1017.7 - -
19/10:30pm 22.3 - - - - SSE 20 26 11 14 1017.9 - -
19/10:20pm 22.4 - - - - SE 19 - 10 - - 1017.8 -
19/10:00pm 22.2 - - - - SE 17 22 9 12 1018.0 - -
19/09:30pm 22.3 - - - - SSE 20 24 11 13 1018.1 - -
19/09:20pm 22.3 - - - - SSE 20 - 11 - - 1017.9 -
19/09:00pm 22.2 - - - - S 22 28 12 15 1018.0 - -
19/08:30pm 22.2 - - - - S 28 32 15 17 1017.8 - -
19/08:20pm 22.2 - - - - S 28 - 15 - - 1017.6 -
19/08:00pm 22.1 - - - - S 24 30 13 16 1017.6 - -
19/07:30pm 21.9 - - - - S 28 30 15 16 1017.3 - -
19/07:20pm 21.9 - - - - S 26 - 14 - - 1017.1 -
19/07:00pm 21.6 - - - - SSE 24 30 13 16 1017.0 - -
19/06:30pm 21.6 - - - - S 28 33 15 18 1016.6 - -
19/06:20pm 21.4 - - - - S 28 - 15 - - 1016.4 -
19/06:00pm 21.4 - - - - S 30 35 16 19 1016.2 - -
19/05:30pm 21.5 - - - - S 30 35 16 19 1015.8 - -
19/05:20pm 21.4 - - - - S 28 - 15 - - 1015.6 -
19/05:00pm 21.5 - - - - S 28 32 15 17 1015.4 - -
19/04:30pm 21.4 - - - - S 26 32 14 17 1015.2 - -
19/04:20pm 21.4 - - - - S 30 - 16 - - 1015.0 -
19/04:00pm 21.5 - - - - S 32 35 17 19 1014.9 - -
19/03:30pm 21.5 - - - - S 30 35 16 19 1014.9 - -
19/03:20pm 21.5 - - - - S 32 - 17 - - 1014.7 -
19/03:00pm 21.6 - - - - S 33 37 18 20 1014.9 - -
19/02:30pm 21.6 - - - - S 35 41 19 22 1015.1 - -
19/02:20pm 21.8 - - - - S 37 - 20 - - 1015.0 -
19/02:00pm 21.8 - - - - S 37 43 20 23 1015.2 - -
19/01:30pm 21.7 - - - - S 39 44 21 24 1015.6 - -
19/01:20pm 21.6 - - - - S 41 - 22 - - 1015.6 -
19/01:00pm 21.7 - - - - S 41 46 22 25 1016.0 - -
19/12:30pm 22.0 - - - - S 41 48 22 26 1016.2 - -
19/12:20pm 22.0 - - - - S 43 - 23 - - 1016.1 -
19/12:00pm 22.2 - - - - S 44 52 24 28 1016.3 - -
19/11:30am 22.6 - - - - S 44 50 24 27 1016.7 - -
19/11:20am 22.6 - - - - S 44 - 24 - - 1016.7 -
19/11:00am 22.9 - - - - S 43 50 23 27 1016.9 - -
19/10:30am 23.1 - - - - S 41 46 22 25 1017.2 - -
19/10:20am 23.3 - - - - S 39 - 21 - - 1017.2 -
19/10:00am 23.4 - - - - S 39 46 21 25 1017.5 - -
19/09:30am 23.4 - - - - S 39 44 21 24 1017.6 - -
19/09:20am 23.5 - - - - S 37 - 20 - - 1017.6 -
19/09:00am 23.3 - - - - S 37 44 20 24 1017.6 - -
19/08:30am 23.4 - - - - S 35 39 19 21 1017.5 - -
19/08:20am 23.4 - - - - S 37 - 20 - - 1017.3 -
19/08:00am 23.1 - - - - S 33 39 18 21 1017.3 - -
19/07:30am 23.0 - - - - S 33 37 18 20 1017.1 - -
19/07:20am 23.0 - - - - S 32 - 17 - - 1016.8 -
19/07:00am 23.1 - - - - S 24 28 13 15 1016.8 - -
19/06:30am 22.9 - - - - S 20 24 11 13 1016.5 - -
19/06:20am 22.9 - - - - S 19 - 10 - - 1016.4 -
19/06:00am 22.8 - - - - SSW 17 20 9 11 1016.4 - -
19/05:30am 22.7 - - - - SSW 15 17 8 9 1016.1 - -
19/05:20am 22.6 - - - - SSW 13 - 7 - - 1015.9 -
19/05:00am 22.6 - - - - SW 9 13 5 7 1015.7 - -
19/04:30am 22.6 - - - - SW 11 13 6 7 1015.6 - -
19/04:20am 22.6 - - - - SW 11 - 6 - - 1015.4 -
19/04:00am 22.5 - - - - WSW 11 13 6 7 1015.3 - -
19/03:30am 22.6 - - - - WSW 11 15 6 8 1015.4 - -
19/03:20am 22.6 - - - - W 11 - 6 - - 1015.3 -
19/03:00am 22.7 - - - - W 15 19 8 10 1015.4 - -
19/02:30am 22.6 - - - - W 19 22 10 12 1015.4 - -
19/02:20am 22.6 - - - - W 19 - 10 - - 1015.2 -
19/02:00am 22.6 - - - - WNW 19 20 10 11 1015.3 - -
19/01:30am 22.7 - - - - NW 17 20 9 11 1015.5 - -
19/01:20am 22.6 - - - - NW 19 - 10 - - 1015.5 -
19/01:00am 22.8 - - - - NW 19 20 10 11 1015.5 - -
19/12:30am 22.7 - - - - NW 19 20 10 11 1015.8 - -
19/12:20am 22.8 - - - - NW 17 - 9 - - 1015.7 -
19/12:00am 22.7 - - - - NW 17 20 9 11 1015.8 - -
 
Date/Time
EST
Temp
°C
App
Temp
°C
Dew
Point
°C
Rel
Hum
%
Delta-T
°C
Wind Press
QNH
hPa
Press
MSL
hPa
Rain since
9am
mm
Dir  Spd
km/h
Gust
km/h
Spd
kts
Gust
kts
18/11:30pm 22.9 - - - - NNW 15 17 8 9 1016.0 - -
18/11:20pm 22.7 - - - - NNW 15 - 8 - - 1016.0 -
18/11:00pm 22.7 - - - - NNW 15 17 8 9 1016.1 - -
18/10:30pm 22.7 - - - - NNW 15 17 8 9 1016.2 - -
18/10:20pm 22.8 - - - - NNW 13 - 7 - - 1016.1 -
18/10:00pm 22.8 - - - - NNW 11 13 6 7 1016.3 - -
18/09:30pm 22.8 - - - - NW 9 11 5 6 1016.4 - -
18/09:20pm 22.8 - - - - NNW 9 - 5 - - 1016.3 -
18/09:00pm 22.8 - - - - N 11 13 6 7 1016.1 - -
18/08:30pm 22.8 - - - - N 13 15 7 8 1016.0 - -
18/08:20pm 22.9 - - - - N 11 - 6 - - 1015.9 -
18/08:00pm 22.8 - - - - N 9 11 5 6 1015.9 - -
18/07:30pm 22.8 - - - - N 9 11 5 6 1015.8 - -
18/07:20pm 22.8 - - - - NNW 7 - 4 - - 1015.6 -
18/07:00pm 23.0 - - - - NNW 7 9 4 5 1015.7 - -
18/06:30pm 22.8 - - - - NW 6 9 3 5 1015.4 - -
18/06:20pm 22.9 - - - - NW 7 - 4 - - 1015.2 -
18/06:00pm 23.0 - - - - NNW 7 9 4 5 1015.0 - -
18/05:30pm 23.2 - - - - NW 9 11 5 6 1014.7 - -
18/05:20pm 23.4 - - - - NNW 9 - 5 - - 1014.4 -
18/05:00pm 23.6 - - - - NNW 9 11 5 6 1014.4 - -
18/04:30pm 23.6 - - - - NNW 9 11 5 6 1014.4 - -
18/04:20pm 23.5 - - - - NNW 9 - 5 - - 1014.1 -
18/04:00pm 23.6 - - - - NW 9 11 5 6 1014.3 - -
18/03:30pm 23.6 - - - - NNW 11 13 6 7 1014.2 - -
18/03:20pm 23.5 - - - - NNW 11 - 6 - - 1014.2 -
18/03:00pm 23.6 - - - - NNW 11 13 6 7 1014.3 - -
18/02:30pm 23.7 - - - - NW 9 11 5 6 1014.5 - -
18/02:20pm 23.8 - - - - NW 11 - 6 - - 1014.5 -
18/02:00pm 24.2 - - - - W 9 13 5 7 1015.0 - -
18/01:30pm 24.3 - - - - W 11 13 6 7 1015.4 - -
18/01:20pm 24.9 - - - - W 9 - 5 - - 1015.5 -
18/01:00pm 25.0 - - - - W 9 11 5 6 1015.8 - -
18/12:30pm 24.8 - - - - W 7 9 4 5 1016.1 - -
18/12:20pm 24.7 - - - - W 7 - 4 - - 1016.1 -
18/12:00pm 24.1 - - - - WNW 9 11 5 6 1016.4 - -
18/11:30am 24.5 - - - - W 7 11 4 6 1016.8 - -
18/11:20am 24.0 - - - - W 9 - 5 - - 1016.8 -
18/11:00am 24.0 - - - - WNW 9 11 5 6 1017.1 - -
18/10:30am 23.7 - - - - NW 11 13 6 7 1017.2 - -
18/10:20am 23.7 - - - - NW 9 - 5 - - 1017.2 -
18/10:00am 23.5 - - - - NNW 11 15 6 8 1017.4 - -
18/09:30am 23.4 - - - - NNW 13 15 7 8 1017.3 - -
18/09:20am 23.3 - - - - NNW 11 - 6 - - 1017.2 -
18/09:00am 23.4 - - - - NW 9 11 5 6 1017.3 - -
18/08:30am 23.4 - - - - NNW 9 13 5 7 1017.2 - -
18/08:20am 23.5 - - - - NW 11 - 6 - - 1017.1 -
18/08:00am 23.3 - - - - NNW 13 15 7 8 1016.7 - -
18/07:30am 23.1 - - - - NNW 15 20 8 11 1016.3 - -
18/07:20am 23.1 - - - - N 17 - 9 - - 1016.1 -
18/07:00am 23.0 - - - - N 17 20 9 11 1016.0 - -
18/06:30am 22.7 - - - - N 19 20 10 11 1015.6 - -
18/06:20am 22.7 - - - - N 19 - 10 - - 1015.4 -
18/06:00am 22.8 - - - - N 19 22 10 12 1015.3 - -
18/05:30am 22.8 - - - - N 20 24 11 13 1014.7 - -
18/05:20am 22.8 - - - - N 20 - 11 - - 1014.6 -
18/05:00am 22.8 - - - - N 20 22 11 12 1014.6 - -
18/04:30am 23.0 - - - - N 19 22 10 12 1014.6 - -
18/04:20am 23.0 - - - - N 17 - 9 - - 1014.5 -
18/04:00am 22.9 - - - - N 19 22 10 12 1014.4 - -
18/03:30am 22.9 - - - - N 17 20 9 11 1014.5 - -
18/03:20am 22.8 - - - - N 17 - 9 - - 1014.4 -
18/03:00am 22.8 - - - - N 17 19 9 10 1014.5 - -
18/02:30am 22.7 - - - - N 15 19 8 10 1014.7 - -
18/02:20am 22.7 - - - - NNW 13 - 7 - - 1014.6 -
18/02:00am 22.7 - - - - N 19 20 10 11 1014.7 - -
18/01:30am 22.8 - - - - N 15 17 8 9 1014.9 - -
18/01:20am 22.8 - - - - N 17 - 9 - - 1014.8 -

Other Formats:

Comma delimited format used in spreadsheet applications
http://www.bom.gov.au/fwo/IDQ60801/IDQ60801.94371.axf

JavaScript Object Notation format (JSON) in row-major order
http://www.bom.gov.au/fwo/IDQ60801/IDQ60801.94371.json